Time;durP1;ratioP1;P1;durP2;ratioP2;P2;SDS_P1;SDS_P2;PMS_P1;PMS_P2;Temp;Humidity;BMP_temperature;BMP_pressure;BME280_temperature;BME280_humidity;BME280_pressure;Samples;Min_cycle;Max_cycle;Signal;HPM_P1;HPM_P2
2021/09/04 00:00:33;;;;;;;7.57;4.18;;;16.60;94.80;;;;;;5102181;28;20016;-89
2021/09/04 00:02:58;;;;;;;6.75;4.18;;;16.60;94.70;;;;;;5109922;28;20023;-88
2021/09/04 00:05:24;;;;;;;7.63;4.60;;;16.60;94.60;;;;;;5090592;28;20416;-88
2021/09/04 00:07:50;;;;;;;6.85;4.40;;;16.60;94.60;;;;;;5084707;28;20046;-87
2021/09/04 00:10:16;;;;;;;8.60;4.85;;;16.60;94.60;;;;;;5095586;28;20019;-87
2021/09/04 00:12:41;;;;;;;8.00;4.53;;;16.60;94.60;;;;;;5097197;28;20020;-87
2021/09/04 00:15:08;;;;;;;6.93;4.55;;;16.70;94.50;;;;;;5106537;28;20034;-84
2021/09/04 00:17:34;;;;;;;7.75;4.45;;;16.80;94.40;;;;;;5086655;28;20122;-87
2021/09/04 00:20:00;;;;;;;7.63;4.45;;;16.80;94.30;;;;;;5095950;28;20076;-85
2021/09/04 00:22:26;;;;;;;7.22;4.10;;;16.80;94.30;;;;;;5082332;28;20088;-87
2021/09/04 00:24:52;;;;;;;8.95;4.55;;;16.80;94.30;;;;;;5110179;28;20028;-87
2021/09/04 00:27:17;;;;;;;6.28;4.55;;;16.70;94.30;;;;;;5089451;28;20019;-79
2021/09/04 00:29:43;;;;;;;9.93;4.85;;;16.70;94.30;;;;;;5103084;28;20456;-83
2021/09/04 00:32:09;;;;;;;8.38;4.45;;;16.70;94.40;;;;;;5095277;28;20019;-86
2021/09/04 00:34:35;;;;;;;9.20;4.53;;;16.60;94.40;;;;;;5101482;28;20462;-84
2021/09/04 00:37:00;;;;;;;8.27;4.65;;;16.60;94.50;;;;;;5091330;28;20016;-85
2021/09/04 00:39:26;;;;;;;9.88;4.32;;;16.50;94.50;;;;;;5090407;28;20047;-82
2021/09/04 00:41:52;;;;;;;8.63;4.70;;;16.50;94.60;;;;;;5098075;28;20509;-83
2021/09/04 00:44:20;;;;;;;7.40;4.63;;;16.40;94.60;;;;;;5098100;28;20503;-82
2021/09/04 00:46:46;;;;;;;7.53;4.65;;;16.50;94.60;;;;;;5116990;28;20046;-82
2021/09/04 00:49:13;;;;;;;8.65;4.78;;;16.50;94.60;;;;;;5106963;28;20023;-82
2021/09/04 00:51:38;;;;;;;7.95;4.70;;;16.40;94.60;;;;;;5078830;28;20503;-82
2021/09/04 00:54:05;;;;;;;7.00;4.50;;;16.40;94.70;;;;;;5078678;28;20064;-82
2021/09/04 00:56:31;;;;;;;8.50;4.90;;;16.30;94.70;;;;;;5112696;28;20026;-83
2021/09/04 00:59:03;;;;;;;7.55;4.38;;;16.40;94.80;;;;;;5086546;28;20081;-84
2021/09/04 01:01:28;;;;;;;7.00;4.35;;;16.30;94.80;;;;;;5086556;28;20020;-84
2021/09/04 01:03:54;;;;;;;7.40;4.45;;;16.30;94.80;;;;;;5094056;28;20424;-83
2021/09/04 01:06:20;;;;;;;7.88;4.47;;;16.20;94.70;;;;;;5077354;28;20513;-84
2021/09/04 01:08:45;;;;;;;7.28;4.05;;;16.20;94.70;;;;;;5096487;28;20346;-83
2021/09/04 01:11:13;;;;;;;7.65;4.60;;;16.20;94.80;;;;;;5087565;28;20015;-84
2021/09/04 01:13:38;;;;;;;7.80;4.55;;;16.20;94.70;;;;;;5098313;28;20468;-81
2021/09/04 01:16:05;;;;;;;6.38;3.90;;;16.10;94.60;;;;;;5081702;28;20111;-82
2021/09/04 01:18:30;;;;;;;7.05;4.22;;;16.10;94.60;;;;;;5094130;28;20040;-84
2021/09/04 01:20:59;;;;;;;6.05;3.83;;;16.00;94.60;;;;;;5085922;28;20016;-88
2021/09/04 01:23:25;;;;;;;6.97;4.10;;;16.10;94.70;;;;;;5086482;28;20028;-83
2021/09/04 01:25:54;;;;;;;7.25;4.38;;;16.00;94.60;;;;;;5110695;28;20027;-88
2021/09/04 01:28:21;;;;;;;8.18;4.40;;;16.10;94.60;;;;;;5080624;28;20050;-82
2021/09/04 01:30:47;;;;;;;6.22;4.13;;;16.00;94.60;;;;;;5092189;28;20048;-85
2021/09/04 01:33:13;;;;;;;7.47;4.68;;;16.00;94.60;;;;;;5077091;28;20024;-86
2021/09/04 01:35:39;;;;;;;7.63;4.80;;;15.90;94.70;;;;;;5091525;28;20030;-85
2021/09/04 01:38:05;;;;;;;6.93;4.20;;;15.90;94.70;;;;;;5081473;28;20020;-87
2021/09/04 01:40:30;;;;;;;7.30;4.20;;;15.90;94.70;;;;;;5092570;28;20026;-88
2021/09/04 01:42:56;;;;;;;7.45;4.45;;;15.90;94.70;;;;;;5085357;28;20015;-84
2021/09/04 01:45:22;;;;;;;6.00;4.20;;;15.90;94.70;;;;;;5097185;28;20055;-87
2021/09/04 01:47:48;;;;;;;7.32;4.25;;;15.90;94.60;;;;;;5100541;28;20408;-85
2021/09/04 01:50:14;;;;;;;6.82;4.20;;;15.90;94.50;;;;;;5098853;28;20126;-87
2021/09/04 01:52:42;;;;;;;9.15;4.40;;;15.90;94.50;;;;;;5091238;28;20027;-88
2021/09/04 01:55:10;;;;;;;9.70;4.32;;;15.90;94.60;;;;;;5077086;28;20071;-84
2021/09/04 01:57:36;;;;;;;7.88;3.90;;;15.80;94.60;;;;;;5090492;28;20078;-87
2021/09/04 02:00:04;;;;;;;7.90;4.53;;;15.80;94.80;;;;;;5099238;28;20441;-87
2021/09/04 02:02:30;;;;;;;6.72;4.43;;;15.80;94.80;;;;;;5098606;28;20043;-87
2021/09/04 02:04:55;;;;;;;6.97;4.30;;;15.80;94.80;;;;;;5089894;28;20441;-86
2021/09/04 02:07:22;;;;;;;7.00;4.15;;;15.80;94.80;;;;;;5105601;28;20027;-88
2021/09/04 02:09:47;;;;;;;8.30;4.22;;;15.70;94.80;;;;;;5101056;28;20048;-86
2021/09/04 02:12:13;;;;;;;7.88;4.70;;;15.70;95.00;;;;;;5093573;28;20364;-86
2021/09/04 02:14:39;;;;;;;8.57;4.18;;;15.70;95.00;;;;;;5082343;28;20372;-84
2021/09/04 02:17:04;;;;;;;7.68;4.50;;;15.70;95.00;;;;;;5089929;28;20130;-83
2021/09/04 02:19:30;;;;;;;6.80;4.07;;;15.70;95.00;;;;;;5083515;28;20025;-83
2021/09/04 02:21:56;;;;;;;8.45;4.43;;;15.60;95.00;;;;;;5084896;28;20013;-83
2021/09/04 02:24:21;;;;;;;6.55;4.18;;;15.60;95.10;;;;;;5086695;28;20097;-84
2021/09/04 02:26:47;;;;;;;6.43;4.68;;;15.60;95.10;;;;;;5085949;28;20016;-84
2021/09/04 02:29:13;;;;;;;7.53;4.13;;;15.60;95.10;;;;;;5086615;28;20364;-83
2021/09/04 02:31:38;;;;;;;5.45;3.97;;;15.60;95.10;;;;;;5078607;28;20074;-84
2021/09/04 02:34:04;;;;;;;5.80;4.22;;;15.50;95.10;;;;;;5073388;28;20032;-82
2021/09/04 02:36:30;;;;;;;6.57;4.40;;;15.50;95.20;;;;;;5089408;28;20024;-82
2021/09/04 02:38:55;;;;;;;10.43;4.60;;;15.40;95.30;;;;;;5080765;28;20099;-82
2021/09/04 02:41:21;;;;;;;6.43;4.10;;;15.50;95.40;;;;;;5087022;28;20028;-80
2021/09/04 02:43:47;;;;;;;8.32;4.45;;;15.40;95.30;;;;;;5091993;28;20024;-83
2021/09/04 02:46:13;;;;;;;6.28;4.13;;;15.40;95.50;;;;;;5075546;28;20063;-80
2021/09/04 02:48:38;;;;;;;8.20;4.53;;;15.30;95.50;;;;;;5087683;28;20031;-81
2021/09/04 02:51:04;;;;;;;8.55;4.55;;;15.30;95.50;;;;;;5079948;28;20033;-81
2021/09/04 02:53:30;;;;;;;5.65;4.20;;;15.30;95.60;;;;;;5080900;28;20051;-81
2021/09/04 02:55:55;;;;;;;6.35;4.13;;;15.30;95.50;;;;;;5072718;28;20029;-81
2021/09/04 02:58:21;;;;;;;7.63;4.15;;;15.30;95.40;;;;;;5089155;28;20061;-82
2021/09/04 03:00:47;;;;;;;6.90;4.15;;;15.30;95.40;;;;;;5085102;28;20027;-80
2021/09/04 03:03:12;;;;;;;6.22;4.15;;;15.30;95.40;;;;;;5082397;28;20107;-82
2021/09/04 03:05:38;;;;;;;5.65;3.78;;;15.20;95.40;;;;;;5079435;28;20030;-81
2021/09/04 03:08:04;;;;;;;7.38;4.25;;;15.20;95.50;;;;;;5089065;28;20020;-82
2021/09/04 03:10:30;;;;;;;8.40;4.40;;;15.10;95.60;;;;;;5076019;28;20026;-81
2021/09/04 03:12:56;;;;;;;8.40;4.45;;;15.10;95.60;;;;;;5086559;28;20012;-81
2021/09/04 03:15:22;;;;;;;7.57;4.05;;;15.10;95.70;;;;;;5084010;28;20070;-81
2021/09/04 03:17:47;;;;;;;9.07;4.53;;;15.10;95.70;;;;;;5078156;28;20049;-81
2021/09/04 03:20:13;;;;;;;8.43;4.38;;;15.20;95.70;;;;;;5088646;28;20027;-81
2021/09/04 03:22:39;;;;;;;6.78;4.45;;;15.20;95.60;;;;;;5073009;28;20432;-79
2021/09/04 03:25:05;;;;;;;6.47;4.00;;;15.10;95.60;;;;;;5081034;28;20051;-79
2021/09/04 03:27:32;;;;;;;7.22;4.50;;;15.20;95.60;;;;;;5091927;28;20016;-81
2021/09/04 03:29:59;;;;;;;6.63;4.15;;;15.10;95.60;;;;;;5076105;28;20024;-81
2021/09/04 03:32:25;;;;;;;6.13;4.15;;;15.20;95.70;;;;;;5083163;28;20024;-81
2021/09/04 03:34:52;;;;;;;7.05;4.10;;;15.10;95.70;;;;;;5084446;28;20465;-81
2021/09/04 03:37:19;;;;;;;6.07;4.38;;;15.20;95.60;;;;;;5083395;28;20020;-80
2021/09/04 03:39:44;;;;;;;7.93;4.53;;;15.20;95.70;;;;;;5083770;28;20091;-81
2021/09/04 03:42:10;;;;;;;6.93;4.32;;;15.20;95.50;;;;;;5075709;28;20449;-81
2021/09/04 03:44:37;;;;;;;9.40;4.45;;;15.10;95.60;;;;;;5088830;28;20023;-79
2021/09/04 03:47:03;;;;;;;6.68;4.20;;;15.10;95.50;;;;;;5079485;28;20031;-79
2021/09/04 03:49:29;;;;;;;8.45;4.70;;;15.10;95.60;;;;;;5080863;28;20076;-79
2021/09/04 03:51:54;;;;;;;11.93;4.55;;;15.10;95.70;;;;;;5087689;28;20047;-78
2021/09/04 03:54:20;;;;;;;6.78;4.70;;;15.10;95.70;;;;;;5088992;28;20047;-80
2021/09/04 03:56:45;;;;;;;7.68;4.43;;;15.00;95.60;;;;;;5079285;28;20387;-78
2021/09/04 03:59:11;;;;;;;6.97;4.50;;;15.00;95.60;;;;;;5082534;28;20107;-79
2021/09/04 04:01:37;;;;;;;7.25;4.80;;;15.00;95.70;;;;;;5085407;28;20514;-79
2021/09/04 04:04:02;;;;;;;7.07;4.65;;;15.00;95.70;;;;;;5075592;28;20024;-79
2021/09/04 04:06:28;;;;;;;7.85;4.25;;;14.90;96.00;;;;;;5074512;28;20034;-79
2021/09/04 04:08:55;;;;;;;6.35;4.22;;;14.90;95.80;;;;;;5085604;28;20021;-78
2021/09/04 04:11:21;;;;;;;5.47;4.03;;;14.90;95.70;;;;;;5080550;28;20024;-79
2021/09/04 04:13:47;;;;;;;6.57;4.35;;;14.90;95.80;;;;;;5087541;28;20024;-79
2021/09/04 04:16:13;;;;;;;9.15;4.32;;;14.80;95.80;;;;;;5074737;28;20034;-79
2021/09/04 04:18:38;;;;;;;8.30;4.40;;;14.80;95.90;;;;;;5087075;28;20044;-79
2021/09/04 04:21:04;;;;;;;6.43;3.97;;;14.90;95.90;;;;;;5080137;28;20016;-79
2021/09/04 04:23:29;;;;;;;8.27;4.45;;;14.80;95.90;;;;;;5079619;28;20078;-78
2021/09/04 04:25:55;;;;;;;8.77;4.43;;;14.80;95.90;;;;;;5071356;28;20040;-78
2021/09/04 04:28:22;;;;;;;7.38;4.20;;;14.80;96.00;;;;;;5087712;28;20019;-79
2021/09/04 04:30:47;;;;;;;8.57;4.43;;;14.70;95.90;;;;;;5077259;28;20096;-80
2021/09/04 04:33:13;;;;;;;7.60;3.90;;;14.70;95.80;;;;;;5083697;28;20044;-78
2021/09/04 04:35:39;;;;;;;7.43;4.07;;;14.70;95.80;;;;;;5078716;28;20025;-81
2021/09/04 04:38:05;;;;;;;7.07;4.13;;;14.60;95.90;;;;;;5072162;28;20025;-81
2021/09/04 04:40:30;;;;;;;6.68;4.20;;;14.60;95.80;;;;;;5090824;28;20029;-82
2021/09/04 04:42:56;;;;;;;7.70;4.38;;;14.60;95.90;;;;;;5085503;28;20453;-80
2021/09/04 04:45:22;;;;;;;8.88;3.88;;;14.50;95.90;;;;;;5075089;28;20029;-81
2021/09/04 04:47:47;;;;;;;6.22;4.18;;;14.50;96.00;;;;;;5089951;28;20020;-82
2021/09/04 04:50:15;;;;;;;6.63;3.75;;;14.40;96.10;;;;;;5077895;28;20025;-81
2021/09/04 04:52:41;;;;;;;7.18;4.60;;;14.30;96.40;;;;;;5084525;28;20008;-80
2021/09/04 04:55:08;;;;;;;7.80;4.85;;;14.30;96.60;;;;;;5086071;28;20047;-80
2021/09/04 04:57:34;;;;;;;7.13;4.13;;;14.30;96.60;;;;;;5089417;28;20051;-80
2021/09/04 05:00:00;;;;;;;8.77;4.70;;;14.40;96.50;;;;;;5078749;28;20055;-81
2021/09/04 05:02:26;;;;;;;6.53;4.57;;;14.40;96.30;;;;;;5091604;28;20016;-82
2021/09/04 05:04:51;;;;;;;5.38;4.25;;;14.40;96.60;;;;;;5081965;28;20023;-81
2021/09/04 05:07:17;;;;;;;7.05;4.40;;;14.40;96.30;;;;;;5084933;28;20024;-80
2021/09/04 05:09:43;;;;;;;6.25;4.10;;;14.40;96.40;;;;;;5086323;28;20146;-80
2021/09/04 05:12:09;;;;;;;8.80;4.60;;;14.40;96.40;;;;;;5078405;28;20028;-84
2021/09/04 05:14:34;;;;;;;7.82;4.68;;;14.40;96.40;;;;;;5092014;28;20477;-80
2021/09/04 05:17:00;;;;;;;6.07;4.13;;;14.40;96.30;;;;;;5082664;28;20119;-80
2021/09/04 05:19:26;;;;;;;6.63;4.50;;;14.40;96.40;;;;;;5084069;28;20449;-80
2021/09/04 05:21:51;;;;;;;12.23;5.22;;;14.40;96.40;;;;;;5089850;28;20016;-80
2021/09/04 05:24:17;;;;;;;7.13;4.50;;;14.50;96.30;;;;;;5092326;28;20454;-80
2021/09/04 05:26:43;;;;;;;8.68;4.60;;;14.50;96.20;;;;;;5079836;28;20066;-81
2021/09/04 05:29:08;;;;;;;6.32;4.15;;;14.40;96.30;;;;;;5093973;28;20128;-82
2021/09/04 05:31:34;;;;;;;6.68;4.50;;;14.40;96.50;;;;;;5081428;28;20107;-80
2021/09/04 05:34:00;;;;;;;8.23;4.28;;;14.40;96.50;;;;;;5090819;28;20093;-80
2021/09/04 05:36:25;;;;;;;7.72;4.25;;;14.40;96.70;;;;;;5090954;28;20514;-81
2021/09/04 05:38:51;;;;;;;10.35;4.45;;;14.40;96.80;;;;;;5081287;28;20473;-80
2021/09/04 05:41:17;;;;;;;9.00;4.60;;;14.40;96.90;;;;;;5084124;28;20017;-81
2021/09/04 05:43:42;;;;;;;9.23;4.95;;;14.40;96.90;;;;;;5089412;28;20107;-82
2021/09/04 05:46:08;;;;;;;7.05;4.45;;;14.40;96.90;;;;;;5076417;28;20032;-88
2021/09/04 05:48:34;;;;;;;8.52;4.65;;;14.40;96.90;;;;;;5079314;28;20095;-81
2021/09/04 05:50:59;;;;;;;6.82;4.63;;;14.40;96.80;;;;;;5085398;28;20074;-80
2021/09/04 05:53:25;;;;;;;7.30;4.50;;;14.50;96.80;;;;;;5084993;28;20051;-80
2021/09/04 05:55:51;;;;;;;9.38;4.93;;;14.50;96.70;;;;;;5094334;28;20032;-80
2021/09/04 05:58:16;;;;;;;6.30;4.22;;;14.60;96.70;;;;;;5077163;28;20361;-80
2021/09/04 06:00:42;;;;;;;9.20;4.75;;;14.60;96.60;;;;;;5088808;28;20037;-80
2021/09/04 06:03:08;;;;;;;8.43;5.00;;;14.70;96.60;;;;;;5073934;28;20020;-80
2021/09/04 06:05:33;;;;;;;9.85;4.70;;;14.70;96.70;;;;;;5074733;28;20110;-80
2021/09/04 06:07:59;;;;;;;9.00;4.75;;;14.70;96.70;;;;;;5091135;28;20032;-80
2021/09/04 06:10:25;;;;;;;7.70;4.93;;;14.80;96.60;;;;;;5076545;28;20016;-80
2021/09/04 06:12:50;;;;;;;9.57;4.90;;;14.80;96.50;;;;;;5087177;28;20016;-81
2021/09/04 06:15:16;;;;;;;8.40;5.05;;;14.90;96.50;;;;;;5083459;28;20028;-81
2021/09/04 06:17:42;;;;;;;7.55;5.15;;;14.80;96.50;;;;;;5079918;28;20055;-81
2021/09/04 06:20:08;;;;;;;8.07;5.38;;;14.90;96.70;;;;;;5091614;28;20031;-81
2021/09/04 06:22:34;;;;;;;7.18;4.82;;;14.90;96.50;;;;;;5078091;28;20016;-81
2021/09/04 06:25:00;;;;;;;8.57;5.25;;;14.90;96.60;;;;;;5093749;28;20028;-81
2021/09/04 06:27:26;;;;;;;8.05;5.03;;;14.90;96.50;;;;;;5081334;28;20522;-81
2021/09/04 06:29:52;;;;;;;9.23;5.03;;;15.00;96.50;;;;;;5073104;28;20032;-81
2021/09/04 06:32:17;;;;;;;6.13;4.43;;;15.00;96.50;;;;;;5090481;28;20376;-81
2021/09/04 06:34:43;;;;;;;7.03;4.75;;;15.10;96.50;;;;;;5079076;28;20464;-80
2021/09/04 06:37:09;;;;;;;7.90;4.60;;;15.10;96.60;;;;;;5083908;28;20017;-85
2021/09/04 06:39:34;;;;;;;8.85;5.00;;;15.10;96.60;;;;;;5087498;28;20054;-81
2021/09/04 06:42:00;;;;;;;7.80;4.72;;;15.10;96.50;;;;;;5077272;28;20025;-81
2021/09/04 06:44:26;;;;;;;7.82;5.10;;;15.20;96.40;;;;;;5093735;28;20028;-81
2021/09/04 06:46:51;;;;;;;9.35;5.32;;;15.20;96.50;;;;;;5086020;28;20040;-81
2021/09/04 06:49:17;;;;;;;9.27;5.50;;;15.20;96.30;;;;;;5083799;28;20019;-81
2021/09/04 06:51:43;;;;;;;13.10;5.18;;;15.20;96.30;;;;;;5079963;28;20385;-81
2021/09/04 06:54:08;;;;;;;7.53;5.05;;;15.30;96.30;;;;;;5089535;28;20032;-86
2021/09/04 06:56:34;;;;;;;8.90;5.60;;;15.30;96.20;;;;;;5088565;28;20477;-81
2021/09/04 06:59:00;;;;;;;7.55;5.15;;;15.40;96.10;;;;;;5081104;28;20421;-81
2021/09/04 07:01:25;;;;;;;9.18;5.38;;;15.40;96.30;;;;;;5081305;28;20027;-81
2021/09/04 07:03:51;;;;;;;11.20;5.43;;;15.40;96.30;;;;;;5088850;28;20059;-82
2021/09/04 07:06:17;;;;;;;9.52;5.28;;;15.40;96.40;;;;;;5073488;28;20021;-80
2021/09/04 07:08:43;;;;;;;8.20;5.15;;;15.50;96.40;;;;;;5077909;28;20026;-79
2021/09/04 07:11:09;;;;;;;8.75;4.88;;;15.50;96.40;;;;;;5083113;28;20020;-87
2021/09/04 07:13:34;;;;;;;8.07;5.07;;;15.60;96.30;;;;;;5073443;28;20094;-81
2021/09/04 07:16:00;;;;;;;9.18;5.53;;;15.60;96.40;;;;;;5088430;28;20107;-82
2021/09/04 07:18:26;;;;;;;8.48;5.38;;;15.60;96.60;;;;;;5075049;28;20123;-81
2021/09/04 07:20:52;;;;;;;9.57;5.60;;;15.60;96.50;;;;;;5092940;28;20048;-81
2021/09/04 07:23:18;;;;;;;7.97;5.05;;;15.60;96.50;;;;;;5092680;28;20085;-81
2021/09/04 07:25:44;;;;;;;9.07;4.72;;;15.70;96.40;;;;;;5078423;28;20509;-81
2021/09/04 07:28:10;;;;;;;9.98;5.07;;;15.70;96.80;;;;;;5089329;28;20061;-82
2021/09/04 07:30:36;;;;;;;6.60;4.60;;;15.80;96.40;;;;;;5076651;28;20069;-82
2021/09/04 07:33:02;;;;;;;7.38;4.60;;;15.80;96.40;;;;;;5084030;28;20043;-81
2021/09/04 07:35:28;;;;;;;8.88;5.18;;;15.90;96.30;;;;;;5083653;28;20063;-81
2021/09/04 07:37:54;;;;;;;8.68;5.00;;;16.00;96.30;;;;;;5076944;28;20029;-82
2021/09/04 07:40:20;;;;;;;6.50;4.63;;;16.00;96.20;;;;;;5087916;28;20103;-82
2021/09/04 07:42:46;;;;;;;7.38;5.10;;;16.00;96.10;;;;;;5078357;28;20077;-81
2021/09/04 07:45:12;;;;;;;8.85;5.40;;;16.10;96.20;;;;;;5082609;28;20016;-83
2021/09/04 07:47:37;;;;;;;7.85;5.03;;;16.10;96.10;;;;;;5085012;28;20110;-83
2021/09/04 07:50:04;;;;;;;8.48;5.82;;;16.20;96.00;;;;;;5075395;28;20052;-83
2021/09/04 07:52:29;;;;;;;8.55;5.35;;;16.30;96.10;;;;;;5075199;28;20404;-82
2021/09/04 07:54:55;;;;;;;7.20;4.97;;;16.30;96.10;;;;;;5092258;28;20039;-83
2021/09/04 07:57:21;;;;;;;7.10;5.03;;;16.40;96.00;;;;;;5091799;28;20419;-82
2021/09/04 07:59:46;;;;;;;7.38;5.00;;;16.40;95.90;;;;;;5079201;28;20052;-79
2021/09/04 08:02:12;;;;;;;8.15;4.50;;;16.40;95.80;;;;;;5088459;28;20024;-81
2021/09/04 08:04:38;;;;;;;7.30;4.80;;;16.40;95.90;;;;;;5077227;28;20027;-82
2021/09/04 08:07:03;;;;;;;8.27;5.00;;;16.50;95.90;;;;;;5083613;28;20020;-83
2021/09/04 08:09:29;;;;;;;7.80;4.50;;;16.50;95.80;;;;;;5083335;28;20078;-82
2021/09/04 08:11:54;;;;;;;7.25;4.90;;;16.50;95.80;;;;;;5076357;28;20031;-83
2021/09/04 08:14:20;;;;;;;6.22;4.43;;;16.60;95.80;;;;;;5088366;28;20036;-83
2021/09/04 08:16:46;;;;;;;8.02;4.40;;;16.60;95.60;;;;;;5081610;28;20040;-82
2021/09/04 08:19:11;;;;;;;7.32;4.50;;;16.70;95.80;;;;;;5087359;28;20032;-83
2021/09/04 08:21:37;;;;;;;7.07;4.32;;;16.70;95.50;;;;;;5077342;28;20028;-81
2021/09/04 08:24:03;;;;;;;6.80;4.50;;;16.80;95.40;;;;;;5092664;28;20032;-86
2021/09/04 08:26:29;;;;;;;6.97;4.32;;;16.80;95.30;;;;;;5078845;28;20073;-84
2021/09/04 08:28:55;;;;;;;8.57;5.10;;;16.80;95.40;;;;;;5089252;28;20020;-83
2021/09/04 08:31:21;;;;;;;6.90;4.50;;;16.90;95.40;;;;;;5075056;28;20016;-83
2021/09/04 08:33:47;;;;;;;8.48;4.78;;;16.90;95.30;;;;;;5090030;28;20479;-82
2021/09/04 08:36:12;;;;;;;7.90;5.05;;;16.90;95.20;;;;;;5078377;28;20111;-83
2021/09/04 08:38:38;;;;;;;7.05;4.55;;;16.90;95.30;;;;;;5091825;28;20051;-82
2021/09/04 08:41:04;;;;;;;6.43;5.07;;;17.00;95.20;;;;;;5084356;28;20521;-82
2021/09/04 08:43:30;;;;;;;5.53;4.30;;;17.00;95.20;;;;;;5084552;28;20048;-82
2021/09/04 08:45:56;;;;;;;10.57;5.43;;;17.10;94.90;;;;;;5080181;28;20058;-82
2021/09/04 08:48:23;;;;;;;7.57;5.32;;;17.10;94.80;;;;;;5091226;28;20048;-83
2021/09/04 08:50:51;;;;;;;10.95;6.03;;;17.10;94.80;;;;;;5077434;28;20024;-83
2021/09/04 08:53:19;;;;;;;9.23;5.35;;;17.20;95.10;;;;;;5086193;28;20012;-88
2021/09/04 08:55:44;;;;;;;8.90;4.75;;;17.30;94.90;;;;;;5081074;28;20029;-93
2021/09/04 08:58:10;;;;;;;6.75;4.65;;;17.30;94.80;;;;;;5075979;28;20024;-91
2021/09/04 09:00:38;;;;;;;6.78;4.72;;;17.40;94.70;;;;;;5091456;28;20043;-93
2021/09/04 09:03:04;;;;;;;8.85;5.20;;;17.50;94.70;;;;;;5084588;28;20445;-92
2021/09/04 09:05:43;;;;;;;6.68;4.07;;;17.50;94.60;;;;;;5083482;28;20028;-92
2021/09/04 09:08:21;;;;;;;7.53;4.60;;;17.60;95.10;;;;;;5092618;28;20020;-88
2021/09/04 09:10:48;;;;;;;7.80;4.43;;;17.60;95.00;;;;;;5081164;28;20016;-88
2021/09/04 09:13:18;;;;;;;9.05;5.25;;;17.60;94.70;;;;;;5085632;28;20081;-86
2021/09/04 09:15:44;;;;;;;11.73;5.03;;;17.70;94.60;;;;;;5088936;28;20020;-85
2021/09/04 09:18:16;;;;;;;6.65;4.65;;;17.80;94.10;;;;;;5093229;28;20403;-86
2021/09/04 09:21:05;;;;;;;8.27;5.05;;;17.80;94.10;;;;;;5075199;28;20025;-83
2021/09/04 09:23:31;;;;;;;6.18;4.50;;;17.80;94.10;;;;;;5086066;28;20051;-86
2021/09/04 09:26:07;;;;;;;8.30;4.80;;;17.90;94.40;;;;;;5078528;28;20453;-92
2021/09/04 09:28:33;;;;;;;6.55;4.50;;;18.00;94.00;;;;;;5078554;28;20501;-93
2021/09/04 09:31:00;;;;;;;9.45;4.85;;;18.00;93.50;;;;;;5087136;28;20020;-91
2021/09/04 09:33:31;;;;;;;9.73;4.63;;;18.10;94.20;;;;;;5085104;28;20024;-84
2021/09/04 09:35:59;;;;;;;12.15;4.60;;;18.10;94.10;;;;;;5080110;28;20036;-88
2021/09/04 09:38:27;;;;;;;7.28;4.60;;;18.10;94.10;;;;;;5090451;28;20025;-86
2021/09/04 09:40:54;;;;;;;7.82;4.43;;;18.10;94.10;;;;;;5081118;28;20019;-87
2021/09/04 09:43:23;;;;;;;7.35;4.32;;;18.10;94.00;;;;;;5083431;28;20031;-89
2021/09/04 09:45:52;;;;;;;7.88;4.90;;;18.20;94.20;;;;;;5089796;28;20056;-91
2021/09/04 09:48:24;;;;;;;8.13;4.80;;;18.30;94.40;;;;;;5078105;28;20069;-89
2021/09/04 09:50:51;;;;;;;11.48;6.60;;;18.30;94.00;;;;;;5088696;28;20107;-88
2021/09/04 09:53:17;;;;;;;6.35;4.40;;;18.40;93.90;;;;;;5083888;28;20084;-87
2021/09/04 09:55:45;;;;;;;4.97;4.13;;;18.40;93.50;;;;;;5095263;28;20035;-89
2021/09/04 09:58:12;;;;;;;5.45;3.97;;;18.50;93.50;;;;;;5076985;28;20161;-91
2021/09/04 10:00:39;;;;;;;5.65;4.20;;;18.50;93.40;;;;;;5094551;28;20403;-87
2021/09/04 10:03:06;;;;;;;7.47;4.30;;;18.60;93.40;;;;;;5086006;28;20044;-86
2021/09/04 10:05:32;;;;;;;7.50;4.57;;;18.70;93.60;;;;;;5075087;28;20031;-87
2021/09/04 10:07:58;;;;;;;6.07;4.13;;;18.80;93.50;;;;;;5090169;28;20396;-87
2021/09/04 10:10:29;;;;;;;7.35;4.35;;;18.80;93.40;;;;;;5076577;28;20095;-87
2021/09/04 10:12:55;;;;;;;8.15;4.18;;;18.80;93.30;;;;;;5094093;28;20465;-92
2021/09/04 10:15:35;;;;;;;6.85;4.30;;;18.80;93.10;;;;;;5082964;28;20036;-91
2021/09/04 10:18:04;;;;;;;7.95;4.38;;;19.00;92.80;;;;;;5073846;28;20048;-91
2021/09/04 10:20:31;;;;;;;7.55;4.65;;;19.10;92.70;;;;;;5077245;28;20031;-92
2021/09/04 10:23:19;;;;;;;7.72;4.55;;;19.20;92.40;;;;;;5094301;28;20028;-88
2021/09/04 10:25:45;;;;;;;8.43;4.30;;;19.30;91.90;;;;;;5050450;28;20132;-88
2021/09/04 10:28:10;;;;;;;6.03;4.22;;;19.30;91.50;;;;;;5089893;28;20035;-91
2021/09/04 10:30:42;;;;;;;7.78;4.35;;;19.30;91.60;;;;;;5077489;28;20610;-91
2021/09/04 10:33:18;;;;;;;5.93;3.92;;;19.50;91.60;;;;;;5084573;28;20526;-90
2021/09/04 10:35:48;;;;;;;19.42;9.23;;;19.60;91.50;;;;;;5088808;28;20032;-91
2021/09/04 10:38:20;;;;;;;9.20;5.18;;;19.60;91.90;;;;;;5076766;28;20108;-91
2021/09/04 10:41:08;;;;;;;8.90;3.92;;;19.80;92.00;;;;;;5087881;28;20062;-87
2021/09/04 10:43:34;;;;;;;7.00;3.92;;;19.80;91.40;;;;;;5084859;28;20111;-88
2021/09/04 10:46:00;;;;;;;6.00;4.00;;;19.80;91.30;;;;;;5078418;28;20054;-88
2021/09/04 10:48:36;;;;;;;9.00;4.20;;;19.90;90.80;;;;;;5076237;28;20524;-86
2021/09/04 10:51:09;;;;;;;6.22;4.07;;;20.00;90.40;;;;;;5093558;28;20059;-89
2021/09/04 10:53:42;;;;;;;5.90;3.65;;;20.10;90.50;;;;;;5092790;28;20081;-90
2021/09/04 10:56:28;;;;;;;7.53;3.88;;;20.10;90.20;;;;;;5075986;28;20032;-89
2021/09/04 10:58:54;;;;;;;7.03;4.40;;;20.20;90.40;;;;;;5087448;28;20024;-90
2021/09/04 11:01:27;;;;;;;6.13;3.75;;;20.30;90.20;;;;;;5084360;28;20020;-91
2021/09/04 11:03:54;;;;;;;5.95;3.50;;;20.30;90.20;;;;;;5078264;28;20020;-90
2021/09/04 11:06:24;;;;;;;6.90;4.03;;;20.30;90.00;;;;;;5089443;28;20024;-87
2021/09/04 11:08:51;;;;;;;7.03;4.05;;;20.40;90.20;;;;;;5079402;28;20115;-86
2021/09/04 11:11:26;;;;;;;5.22;3.75;;;20.40;90.20;;;;;;5081783;28;20021;-85
2021/09/04 11:13:55;;;;;;;6.53;3.53;;;20.50;89.90;;;;;;5088720;28;20027;-84
2021/09/04 11:16:51;;;;;;;5.63;3.47;;;20.70;87.90;;;;;;5076374;28;20016;-83
2021/09/04 11:19:32;;;;;;;4.78;3.60;;;20.80;86.70;;;;;;5101983;28;20170;-82
2021/09/04 11:22:12;;;;;;;5.28;3.55;;;20.70;87.20;;;;;;5110309;28;20012;-87
2021/09/04 11:24:38;;;;;;;4.40;3.17;;;20.70;87.00;;;;;;5081224;28;20027;-85
2021/09/04 11:27:13;;;;;;;6.93;3.70;;;20.80;87.20;;;;;;5087918;28;20012;-86
2021/09/04 11:29:45;;;;;;;4.00;3.20;;;20.80;88.60;;;;;;5089163;28;20020;-87
2021/09/04 11:32:13;;;;;;;4.07;3.17;;;21.00;86.00;;;;;;5096527;28;20023;-87
2021/09/04 11:34:48;;;;;;;5.50;3.55;;;21.10;87.00;;;;;;5108826;28;20027;-85
2021/09/04 11:37:34;;;;;;;3.95;3.03;;;21.20;88.70;;;;;;5085204;28;20034;-86
2021/09/04 11:40:11;;;;;;;4.95;3.40;;;21.30;87.30;;;;;;5079558;28;20508;-84
2021/09/04 11:42:45;;;;;;;6.07;3.05;;;21.40;85.30;;;;;;5080771;28;20023;-86
2021/09/04 11:45:21;;;;;;;4.47;3.55;;;21.50;84.00;;;;;;5104497;28;20365;-88
2021/09/04 11:47:50;;;;;;;4.35;3.22;;;21.40;84.20;;;;;;5091091;28;20104;-86
2021/09/04 11:50:21;;;;;;;4.88;3.22;;;21.50;85.90;;;;;;5076792;28;20020;-87
2021/09/04 11:52:47;;;;;;;5.10;3.33;;;21.60;85.40;;;;;;5075974;28;20016;-86
2021/09/04 11:55:21;;;;;;;5.22;3.35;;;21.70;84.80;;;;;;5085298;28;20062;-87
2021/09/04 11:57:49;;;;;;;4.50;3.13;;;21.70;82.10;;;;;;5096129;28;20023;-86
2021/09/04 12:00:16;;;;;;;5.07;2.85;;;21.80;81.60;;;;;;5078763;28;20088;-90
2021/09/04 12:02:46;;;;;;;5.85;3.60;;;22.00;82.00;;;;;;5108804;28;20025;-88
2021/09/04 12:05:12;;;;;;;6.13;3.40;;;22.10;81.60;;;;;;5085215;28;20030;-90
2021/09/04 12:07:40;;;;;;;4.53;3.08;;;22.30;81.70;;;;;;5083878;28;20020;-91
2021/09/04 12:10:07;;;;;;;6.60;3.13;;;22.30;80.90;;;;;;5092409;28;20419;-89
2021/09/04 12:12:34;;;;;;;3.92;2.65;;;22.50;79.20;;;;;;5078964;28;20023;-90
2021/09/04 12:15:01;;;;;;;3.95;2.60;;;22.60;77.20;;;;;;5087727;28;20418;-85
2021/09/04 12:17:27;;;;;;;3.88;2.88;;;22.90;75.70;;;;;;5104524;28;20039;-86
2021/09/04 12:19:53;;;;;;;5.30;3.05;;;23.00;74.40;;;;;;5080359;28;20072;-88
2021/09/04 12:22:31;;;;;;;3.60;2.60;;;23.10;73.10;;;;;;5093389;28;20028;-86
2021/09/04 12:24:57;;;;;;;5.35;3.30;;;23.30;71.00;;;;;;5096211;28;20027;-85
2021/09/04 12:27:40;;;;;;;3.90;2.97;;;23.40;69.90;;;;;;5102400;28;20031;-85
2021/09/04 12:30:07;;;;;;;3.80;2.80;;;23.60;71.50;;;;;;5091794;28;20024;-89
2021/09/04 12:32:35;;;;;;;5.97;2.90;;;23.80;72.00;;;;;;5083017;28;20019;-89
2021/09/04 12:35:01;;;;;;;4.53;2.58;;;23.90;69.00;;;;;;5099663;28;20118;-88
2021/09/04 12:37:28;;;;;;;4.85;2.72;;;24.10;67.20;;;;;;5083233;28;20105;-89
2021/09/04 12:40:12;;;;;;;5.53;2.97;;;24.40;68.30;;;;;;5090854;28;20111;-88
2021/09/04 12:42:39;;;;;;;8.00;2.58;;;24.60;68.30;;;;;;5081715;28;20023;-91
2021/09/04 12:45:08;;;;;;;4.10;2.80;;;24.70;63.80;;;;;;5087129;28;20031;-91